sensor_id;sensor_type;location;lat;lon;timestamp;P1;durP1;ratioP1;P2;durP2;ratioP2
30593;SDS011;33199;47.590;8.300;2023-03-08T00:01:47;3.10;;;2.90;;
30593;SDS011;33199;47.590;8.300;2023-03-08T00:04:12;4.22;;;3.08;;
30593;SDS011;33199;47.590;8.300;2023-03-08T00:06:38;4.57;;;2.72;;
30593;SDS011;33199;47.590;8.300;2023-03-08T00:09:04;5.13;;;3.20;;
30593;SDS011;33199;47.590;8.300;2023-03-08T00:11:29;2.92;;;2.70;;
30593;SDS011;33199;47.590;8.300;2023-03-08T00:13:55;4.35;;;3.28;;
30593;SDS011;33199;47.590;8.300;2023-03-08T00:16:21;4.28;;;3.10;;
30593;SDS011;33199;47.590;8.300;2023-03-08T00:18:47;3.40;;;2.83;;
30593;SDS011;33199;47.590;8.300;2023-03-08T00:21:13;4.70;;;3.10;;
30593;SDS011;33199;47.590;8.300;2023-03-08T00:23:42;3.22;;;2.92;;
30593;SDS011;33199;47.590;8.300;2023-03-08T00:26:09;3.63;;;2.55;;
30593;SDS011;33199;47.590;8.300;2023-03-08T00:28:35;3.90;;;3.35;;
30593;SDS011;33199;47.590;8.300;2023-03-08T00:31:02;4.75;;;3.08;;
30593;SDS011;33199;47.590;8.300;2023-03-08T00:35:57;4.38;;;3.00;;
30593;SDS011;33199;47.590;8.300;2023-03-08T00:38:31;3.20;;;2.80;;
30593;SDS011;33199;47.590;8.300;2023-03-08T00:40:58;3.13;;;2.83;;
30593;SDS011;33199;47.590;8.300;2023-03-08T00:43:23;3.33;;;2.95;;
30593;SDS011;33199;47.590;8.300;2023-03-08T00:45:49;3.65;;;2.95;;
30593;SDS011;33199;47.590;8.300;2023-03-08T00:48:15;3.83;;;3.10;;
30593;SDS011;33199;47.590;8.300;2023-03-08T00:50:41;3.05;;;2.72;;
30593;SDS011;33199;47.590;8.300;2023-03-08T00:53:07;4.13;;;3.08;;
30593;SDS011;33199;47.590;8.300;2023-03-08T00:55:32;3.60;;;2.90;;
30593;SDS011;33199;47.590;8.300;2023-03-08T00:58:00;3.60;;;3.05;;
30593;SDS011;33199;47.590;8.300;2023-03-08T01:00:25;3.47;;;3.08;;
30593;SDS011;33199;47.590;8.300;2023-03-08T01:02:52;3.22;;;2.50;;
30593;SDS011;33199;47.590;8.300;2023-03-08T01:05:18;3.55;;;3.25;;
30593;SDS011;33199;47.590;8.300;2023-03-08T01:07:43;4.47;;;3.00;;
30593;SDS011;33199;47.590;8.300;2023-03-08T01:10:10;2.63;;;2.40;;
30593;SDS011;33199;47.590;8.300;2023-03-08T01:12:36;3.08;;;2.78;;
30593;SDS011;33199;47.590;8.300;2023-03-08T01:15:03;4.07;;;3.05;;
30593;SDS011;33199;47.590;8.300;2023-03-08T01:17:30;3.03;;;2.70;;
30593;SDS011;33199;47.590;8.300;2023-03-08T01:19:56;3.75;;;2.92;;
30593;SDS011;33199;47.590;8.300;2023-03-08T01:22:22;3.10;;;2.80;;
30593;SDS011;33199;47.590;8.300;2023-03-08T01:24:48;3.35;;;3.05;;
30593;SDS011;33199;47.590;8.300;2023-03-08T01:27:14;3.60;;;3.17;;
30593;SDS011;33199;47.590;8.300;2023-03-08T01:29:41;4.07;;;2.97;;
30593;SDS011;33199;47.590;8.300;2023-03-08T01:32:08;3.92;;;2.80;;
30593;SDS011;33199;47.590;8.300;2023-03-08T01:34:35;2.97;;;2.65;;
30593;SDS011;33199;47.590;8.300;2023-03-08T01:37:01;4.15;;;3.25;;
30593;SDS011;33199;47.590;8.300;2023-03-08T01:39:27;2.88;;;2.67;;
30593;SDS011;33199;47.590;8.300;2023-03-08T01:41:52;4.15;;;2.92;;
30593;SDS011;33199;47.590;8.300;2023-03-08T01:44:18;5.88;;;2.97;;
30593;SDS011;33199;47.590;8.300;2023-03-08T01:46:46;2.97;;;2.60;;
30593;SDS011;33199;47.590;8.300;2023-03-08T01:49:14;3.28;;;2.80;;
30593;SDS011;33199;47.590;8.300;2023-03-08T01:54:32;4.15;;;2.90;;
30593;SDS011;33199;47.590;8.300;2023-03-08T01:57:10;2.78;;;2.58;;
30593;SDS011;33199;47.590;8.300;2023-03-08T01:59:42;3.33;;;2.88;;
30593;SDS011;33199;47.590;8.300;2023-03-08T02:02:08;2.97;;;2.75;;
30593;SDS011;33199;47.590;8.300;2023-03-08T02:04:34;3.85;;;2.60;;
30593;SDS011;33199;47.590;8.300;2023-03-08T02:07:00;3.42;;;2.75;;
30593;SDS011;33199;47.590;8.300;2023-03-08T02:09:26;3.25;;;2.85;;
30593;SDS011;33199;47.590;8.300;2023-03-08T02:11:52;4.50;;;3.17;;
30593;SDS011;33199;47.590;8.300;2023-03-08T02:14:19;4.07;;;2.53;;
30593;SDS011;33199;47.590;8.300;2023-03-08T02:16:45;3.22;;;2.75;;
30593;SDS011;33199;47.590;8.300;2023-03-08T02:19:12;3.13;;;2.83;;
30593;SDS011;33199;47.590;8.300;2023-03-08T02:21:51;2.78;;;2.50;;
30593;SDS011;33199;47.590;8.300;2023-03-08T02:24:18;3.15;;;2.85;;
30593;SDS011;33199;47.590;8.300;2023-03-08T02:26:45;4.05;;;2.90;;
30593;SDS011;33199;47.590;8.300;2023-03-08T02:29:11;2.92;;;2.70;;
30593;SDS011;33199;47.590;8.300;2023-03-08T02:31:37;3.55;;;2.72;;
30593;SDS011;33199;47.590;8.300;2023-03-08T02:34:03;3.63;;;2.78;;
30593;SDS011;33199;47.590;8.300;2023-03-08T02:36:29;4.78;;;2.58;;
30593;SDS011;33199;47.590;8.300;2023-03-08T02:38:54;3.72;;;2.70;;
30593;SDS011;33199;47.590;8.300;2023-03-08T02:41:20;3.17;;;2.88;;
30593;SDS011;33199;47.590;8.300;2023-03-08T02:43:46;3.45;;;2.65;;
30593;SDS011;33199;47.590;8.300;2023-03-08T02:46:12;3.40;;;3.10;;
30593;SDS011;33199;47.590;8.300;2023-03-08T02:48:38;3.03;;;2.83;;
30593;SDS011;33199;47.590;8.300;2023-03-08T02:51:03;3.38;;;2.85;;
30593;SDS011;33199;47.590;8.300;2023-03-08T02:53:29;2.83;;;2.60;;
30593;SDS011;33199;47.590;8.300;2023-03-08T02:55:55;3.13;;;2.83;;
30593;SDS011;33199;47.590;8.300;2023-03-08T02:58:20;2.92;;;2.70;;
30593;SDS011;33199;47.590;8.300;2023-03-08T03:00:48;4.43;;;2.92;;
30593;SDS011;33199;47.590;8.300;2023-03-08T03:03:13;3.60;;;2.80;;
30593;SDS011;33199;47.590;8.300;2023-03-08T03:05:42;4.10;;;2.67;;
30593;SDS011;33199;47.590;8.300;2023-03-08T03:08:09;3.78;;;2.90;;
30593;SDS011;33199;47.590;8.300;2023-03-08T03:10:36;2.78;;;2.58;;
30593;SDS011;33199;47.590;8.300;2023-03-08T03:13:03;3.15;;;2.88;;
30593;SDS011;33199;47.590;8.300;2023-03-08T03:15:30;2.95;;;2.75;;
30593;SDS011;33199;47.590;8.300;2023-03-08T03:17:55;3.13;;;2.75;;
30593;SDS011;33199;47.590;8.300;2023-03-08T03:20:21;3.45;;;2.60;;
30593;SDS011;33199;47.590;8.300;2023-03-08T03:22:47;3.00;;;2.58;;
30593;SDS011;33199;47.590;8.300;2023-03-08T03:25:12;4.22;;;2.97;;
30593;SDS011;33199;47.590;8.300;2023-03-08T03:27:38;2.65;;;2.45;;
30593;SDS011;33199;47.590;8.300;2023-03-08T03:30:05;3.15;;;2.67;;
30593;SDS011;33199;47.590;8.300;2023-03-08T03:32:32;3.47;;;2.70;;
30593;SDS011;33199;47.590;8.300;2023-03-08T03:34:58;3.05;;;2.85;;
30593;SDS011;33199;47.590;8.300;2023-03-08T03:37:24;3.25;;;2.95;;
30593;SDS011;33199;47.590;8.300;2023-03-08T03:39:49;2.70;;;2.50;;
30593;SDS011;33199;47.590;8.300;2023-03-08T03:42:16;3.42;;;2.60;;
30593;SDS011;33199;47.590;8.300;2023-03-08T03:44:42;3.63;;;2.90;;
30593;SDS011;33199;47.590;8.300;2023-03-08T03:47:07;2.95;;;2.75;;
30593;SDS011;33199;47.590;8.300;2023-03-08T03:49:33;3.95;;;2.63;;
30593;SDS011;33199;47.590;8.300;2023-03-08T03:51:59;3.47;;;2.95;;
30593;SDS011;33199;47.590;8.300;2023-03-08T03:54:24;2.55;;;2.45;;
30593;SDS011;33199;47.590;8.300;2023-03-08T03:56:50;3.03;;;2.75;;
30593;SDS011;33199;47.590;8.300;2023-03-08T03:59:16;2.90;;;2.70;;
30593;SDS011;33199;47.590;8.300;2023-03-08T04:01:41;3.08;;;2.50;;
30593;SDS011;33199;47.590;8.300;2023-03-08T04:04:08;4.00;;;2.67;;
30593;SDS011;33199;47.590;8.300;2023-03-08T04:06:34;3.15;;;2.90;;
30593;SDS011;33199;47.590;8.300;2023-03-08T04:09:00;2.92;;;2.40;;
30593;SDS011;33199;47.590;8.300;2023-03-08T04:11:31;3.15;;;2.92;;
30593;SDS011;33199;47.590;8.300;2023-03-08T04:14:00;5.10;;;2.97;;
30593;SDS011;33199;47.590;8.300;2023-03-08T04:16:29;3.08;;;2.78;;
30593;SDS011;33199;47.590;8.300;2023-03-08T04:18:58;2.72;;;2.53;;
30593;SDS011;33199;47.590;8.300;2023-03-08T04:21:28;3.05;;;2.75;;
30593;SDS011;33199;47.590;8.300;2023-03-08T04:23:54;2.78;;;2.55;;
30593;SDS011;33199;47.590;8.300;2023-03-08T04:26:21;3.28;;;2.97;;
30593;SDS011;33199;47.590;8.300;2023-03-08T04:28:47;3.00;;;2.80;;
30593;SDS011;33199;47.590;8.300;2023-03-08T04:31:14;3.55;;;2.90;;
30593;SDS011;33199;47.590;8.300;2023-03-08T04:33:50;2.80;;;2.60;;
30593;SDS011;33199;47.590;8.300;2023-03-08T04:36:17;2.78;;;2.58;;
30593;SDS011;33199;47.590;8.300;2023-03-08T04:38:43;4.70;;;2.65;;
30593;SDS011;33199;47.590;8.300;2023-03-08T04:41:09;3.35;;;2.42;;
30593;SDS011;33199;47.590;8.300;2023-03-08T04:43:39;2.92;;;2.70;;
30593;SDS011;33199;47.590;8.300;2023-03-08T04:46:08;2.70;;;2.53;;
30593;SDS011;33199;47.590;8.300;2023-03-08T04:48:34;3.17;;;2.88;;
30593;SDS011;33199;47.590;8.300;2023-03-08T04:51:00;3.13;;;2.78;;
30593;SDS011;33199;47.590;8.300;2023-03-08T04:53:28;3.80;;;2.83;;
30593;SDS011;33199;47.590;8.300;2023-03-08T04:55:55;3.38;;;3.10;;
30593;SDS011;33199;47.590;8.300;2023-03-08T04:58:21;3.78;;;3.03;;
30593;SDS011;33199;47.590;8.300;2023-03-08T05:00:47;4.18;;;2.88;;
30593;SDS011;33199;47.590;8.300;2023-03-08T05:03:12;3.08;;;2.75;;
30593;SDS011;33199;47.590;8.300;2023-03-08T05:05:48;4.25;;;3.10;;
30593;SDS011;33199;47.590;8.300;2023-03-08T05:08:19;3.70;;;2.88;;
30593;SDS011;33199;47.590;8.300;2023-03-08T05:10:49;5.65;;;3.28;;
30593;SDS011;33199;47.590;8.300;2023-03-08T05:13:24;3.47;;;2.83;;
30593;SDS011;33199;47.590;8.300;2023-03-08T05:15:51;4.55;;;2.90;;
30593;SDS011;33199;47.590;8.300;2023-03-08T05:18:17;3.15;;;2.85;;
30593;SDS011;33199;47.590;8.300;2023-03-08T05:20:42;3.42;;;2.85;;
30593;SDS011;33199;47.590;8.300;2023-03-08T05:23:09;5.30;;;3.13;;
30593;SDS011;33199;47.590;8.300;2023-03-08T05:25:39;3.35;;;2.75;;
30593;SDS011;33199;47.590;8.300;2023-03-08T05:28:06;3.30;;;3.00;;
30593;SDS011;33199;47.590;8.300;2023-03-08T05:30:31;3.42;;;2.72;;
30593;SDS011;33199;47.590;8.300;2023-03-08T05:32:57;3.17;;;2.88;;
30593;SDS011;33199;47.590;8.300;2023-03-08T05:35:23;4.28;;;3.22;;
30593;SDS011;33199;47.590;8.300;2023-03-08T05:37:48;3.08;;;2.85;;
30593;SDS011;33199;47.590;8.300;2023-03-08T05:40:14;18.75;;;9.25;;
30593;SDS011;33199;47.590;8.300;2023-03-08T05:42:40;18.40;;;10.88;;
30593;SDS011;33199;47.590;8.300;2023-03-08T05:45:05;21.40;;;11.30;;
30593;SDS011;33199;47.590;8.300;2023-03-08T05:47:32;18.20;;;10.38;;
30593;SDS011;33199;47.590;8.300;2023-03-08T05:49:57;17.90;;;9.82;;
30593;SDS011;33199;47.590;8.300;2023-03-08T05:52:23;17.75;;;10.52;;
30593;SDS011;33199;47.590;8.300;2023-03-08T05:54:48;18.02;;;10.00;;
30593;SDS011;33199;47.590;8.300;2023-03-08T05:57:14;16.67;;;9.30;;
30593;SDS011;33199;47.590;8.300;2023-03-08T05:59:40;14.48;;;8.70;;
30593;SDS011;33199;47.590;8.300;2023-03-08T06:02:05;15.63;;;8.95;;
30593;SDS011;33199;47.590;8.300;2023-03-08T06:04:31;20.25;;;8.68;;
30593;SDS011;33199;47.590;8.300;2023-03-08T06:06:56;15.00;;;8.50;;
30593;SDS011;33199;47.590;8.300;2023-03-08T06:09:22;19.70;;;9.23;;
30593;SDS011;33199;47.590;8.300;2023-03-08T06:11:47;12.77;;;7.80;;
30593;SDS011;33199;47.590;8.300;2023-03-08T06:14:13;13.23;;;8.05;;
30593;SDS011;33199;47.590;8.300;2023-03-08T06:16:39;15.50;;;8.80;;
30593;SDS011;33199;47.590;8.300;2023-03-08T06:19:04;15.77;;;7.95;;
30593;SDS011;33199;47.590;8.300;2023-03-08T06:21:30;13.32;;;8.25;;
30593;SDS011;33199;47.590;8.300;2023-03-08T06:23:55;13.10;;;7.53;;
30593;SDS011;33199;47.590;8.300;2023-03-08T06:26:21;13.25;;;7.25;;
30593;SDS011;33199;47.590;8.300;2023-03-08T06:28:46;13.55;;;8.45;;
30593;SDS011;33199;47.590;8.300;2023-03-08T06:31:13;13.60;;;7.20;;
30593;SDS011;33199;47.590;8.300;2023-03-08T06:33:40;11.88;;;7.25;;
30593;SDS011;33199;47.590;8.300;2023-03-08T06:36:24;12.65;;;7.57;;
30593;SDS011;33199;47.590;8.300;2023-03-08T06:38:50;12.60;;;6.25;;
30593;SDS011;33199;47.590;8.300;2023-03-08T06:41:16;15.38;;;7.03;;
30593;SDS011;33199;47.590;8.300;2023-03-08T06:43:43;8.40;;;6.88;;
30593;SDS011;33199;47.590;8.300;2023-03-08T06:46:12;16.10;;;7.25;;
30593;SDS011;33199;47.590;8.300;2023-03-08T06:48:40;10.05;;;6.72;;
30593;SDS011;33199;47.590;8.300;2023-03-08T06:51:06;11.40;;;6.63;;
30593;SDS011;33199;47.590;8.300;2023-03-08T06:53:32;9.55;;;6.28;;
30593;SDS011;33199;47.590;8.300;2023-03-08T06:56:00;10.20;;;6.90;;
30593;SDS011;33199;47.590;8.300;2023-03-08T06:58:27;11.32;;;7.18;;
30593;SDS011;33199;47.590;8.300;2023-03-08T07:00:53;12.07;;;6.95;;
30593;SDS011;33199;47.590;8.300;2023-03-08T07:03:19;12.73;;;6.43;;
30593;SDS011;33199;47.590;8.300;2023-03-08T07:05:44;11.35;;;6.20;;
30593;SDS011;33199;47.590;8.300;2023-03-08T07:08:10;8.52;;;5.82;;
30593;SDS011;33199;47.590;8.300;2023-03-08T07:10:35;10.25;;;6.43;;
30593;SDS011;33199;47.590;8.300;2023-03-08T07:13:01;11.70;;;6.35;;
30593;SDS011;33199;47.590;8.300;2023-03-08T07:15:27;9.15;;;6.18;;
30593;SDS011;33199;47.590;8.300;2023-03-08T07:17:53;9.40;;;5.85;;
30593;SDS011;33199;47.590;8.300;2023-03-08T07:20:21;9.57;;;6.15;;
30593;SDS011;33199;47.590;8.300;2023-03-08T07:22:48;7.93;;;5.53;;
30593;SDS011;33199;47.590;8.300;2023-03-08T07:25:16;7.68;;;5.65;;
30593;SDS011;33199;47.590;8.300;2023-03-08T07:27:43;11.02;;;5.82;;
30593;SDS011;33199;47.590;8.300;2023-03-08T07:30:09;9.15;;;5.90;;
30593;SDS011;33199;47.590;8.300;2023-03-08T07:32:38;8.15;;;5.43;;
30593;SDS011;33199;47.590;8.300;2023-03-08T07:35:06;8.85;;;5.88;;
30593;SDS011;33199;47.590;8.300;2023-03-08T07:37:33;7.78;;;5.70;;
30593;SDS011;33199;47.590;8.300;2023-03-08T07:39:59;9.02;;;5.10;;
30593;SDS011;33199;47.590;8.300;2023-03-08T07:42:25;7.93;;;5.30;;
30593;SDS011;33199;47.590;8.300;2023-03-08T07:44:53;7.60;;;5.07;;
30593;SDS011;33199;47.590;8.300;2023-03-08T07:47:18;7.05;;;5.13;;
30593;SDS011;33199;47.590;8.300;2023-03-08T07:49:45;7.82;;;4.95;;
30593;SDS011;33199;47.590;8.300;2023-03-08T07:52:10;7.75;;;4.68;;
30593;SDS011;33199;47.590;8.300;2023-03-08T07:54:36;6.13;;;4.85;;
30593;SDS011;33199;47.590;8.300;2023-03-08T07:57:01;7.10;;;5.30;;
30593;SDS011;33199;47.590;8.300;2023-03-08T07:59:27;7.85;;;5.03;;
30593;SDS011;33199;47.590;8.300;2023-03-08T08:01:53;6.60;;;4.00;;
30593;SDS011;33199;47.590;8.300;2023-03-08T08:04:19;7.22;;;4.53;;
30593;SDS011;33199;47.590;8.300;2023-03-08T08:06:47;5.93;;;4.25;;
30593;SDS011;33199;47.590;8.300;2023-03-08T08:09:12;6.07;;;4.38;;
30593;SDS011;33199;47.590;8.300;2023-03-08T08:11:38;6.38;;;4.88;;
30593;SDS011;33199;47.590;8.300;2023-03-08T08:14:05;6.07;;;4.40;;
30593;SDS011;33199;47.590;8.300;2023-03-08T08:16:31;7.30;;;4.35;;
30593;SDS011;33199;47.590;8.300;2023-03-08T08:18:57;5.10;;;4.38;;
30593;SDS011;33199;47.590;8.300;2023-03-08T08:21:22;6.70;;;4.38;;
30593;SDS011;33199;47.590;8.300;2023-03-08T08:23:48;7.47;;;4.50;;
30593;SDS011;33199;47.590;8.300;2023-03-08T08:26:15;6.35;;;4.18;;
30593;SDS011;33199;47.590;8.300;2023-03-08T08:28:45;6.28;;;4.20;;
30593;SDS011;33199;47.590;8.300;2023-03-08T08:31:14;5.80;;;4.47;;
30593;SDS011;33199;47.590;8.300;2023-03-08T08:33:43;5.85;;;4.22;;
30593;SDS011;33199;47.590;8.300;2023-03-08T08:36:12;5.93;;;3.90;;
30593;SDS011;33199;47.590;8.300;2023-03-08T08:38:40;6.40;;;4.32;;
30593;SDS011;33199;47.590;8.300;2023-03-08T08:41:07;5.40;;;4.05;;
30593;SDS011;33199;47.590;8.300;2023-03-08T08:43:34;4.88;;;3.80;;
30593;SDS011;33199;47.590;8.300;2023-03-08T08:46:01;5.45;;;3.78;;
30593;SDS011;33199;47.590;8.300;2023-03-08T08:48:27;4.30;;;3.53;;
30593;SDS011;33199;47.590;8.300;2023-03-08T08:50:53;6.00;;;3.90;;
30593;SDS011;33199;47.590;8.300;2023-03-08T08:53:19;4.18;;;3.10;;
30593;SDS011;33199;47.590;8.300;2023-03-08T08:55:46;4.90;;;3.92;;
30593;SDS011;33199;47.590;8.300;2023-03-08T08:58:11;4.03;;;3.03;;
30593;SDS011;33199;47.590;8.300;2023-03-08T09:00:37;5.68;;;3.80;;
30593;SDS011;33199;47.590;8.300;2023-03-08T09:03:03;5.85;;;4.13;;
30593;SDS011;33199;47.590;8.300;2023-03-08T09:05:30;4.43;;;3.65;;
30593;SDS011;33199;47.590;8.300;2023-03-08T09:07:57;3.72;;;3.35;;
30593;SDS011;33199;47.590;8.300;2023-03-08T09:10:28;3.72;;;3.20;;
30593;SDS011;33199;47.590;8.300;2023-03-08T09:12:56;4.05;;;3.15;;
30593;SDS011;33199;47.590;8.300;2023-03-08T09:15:23;3.13;;;2.92;;
30593;SDS011;33199;47.590;8.300;2023-03-08T09:17:49;4.60;;;3.22;;
30593;SDS011;33199;47.590;8.300;2023-03-08T09:20:15;3.55;;;3.08;;
30593;SDS011;33199;47.590;8.300;2023-03-08T09:22:41;4.00;;;3.40;;
30593;SDS011;33199;47.590;8.300;2023-03-08T09:25:07;3.53;;;3.17;;
30593;SDS011;33199;47.590;8.300;2023-03-08T09:27:33;3.22;;;3.03;;
30593;SDS011;33199;47.590;8.300;2023-03-08T09:30:00;3.67;;;3.10;;
30593;SDS011;33199;47.590;8.300;2023-03-08T09:32:26;3.88;;;3.00;;
30593;SDS011;33199;47.590;8.300;2023-03-08T09:34:52;3.20;;;2.53;;
30593;SDS011;33199;47.590;8.300;2023-03-08T09:37:18;3.15;;;2.60;;
30593;SDS011;33199;47.590;8.300;2023-03-08T09:39:44;2.80;;;2.60;;
30593;SDS011;33199;47.590;8.300;2023-03-08T09:42:28;2.95;;;2.75;;
30593;SDS011;33199;47.590;8.300;2023-03-08T09:45:10;3.58;;;2.55;;
30593;SDS011;33199;47.590;8.300;2023-03-08T09:48:03;6.10;;;2.83;;
30593;SDS011;33199;47.590;8.300;2023-03-08T09:53:17;2.92;;;2.63;;
30593;SDS011;33199;47.590;8.300;2023-03-08T09:55:54;5.43;;;2.97;;
30593;SDS011;33199;47.590;8.300;2023-03-08T10:01:35;3.17;;;2.67;;
30593;SDS011;33199;47.590;8.300;2023-03-08T10:09:54;2.85;;;2.65;;
30593;SDS011;33199;47.590;8.300;2023-03-08T10:14:56;5.30;;;2.70;;
30593;SDS011;33199;47.590;8.300;2023-03-08T10:17:33;2.55;;;2.35;;
30593;SDS011;33199;47.590;8.300;2023-03-08T10:20:16;2.50;;;2.25;;
30593;SDS011;33199;47.590;8.300;2023-03-08T10:22:50;3.38;;;2.55;;
30593;SDS011;33199;47.590;8.300;2023-03-08T10:25:36;2.78;;;2.50;;
30593;SDS011;33199;47.590;8.300;2023-03-08T10:28:02;3.47;;;2.75;;
30593;SDS011;33199;47.590;8.300;2023-03-08T10:30:34;2.47;;;2.28;;
30593;SDS011;33199;47.590;8.300;2023-03-08T10:33:08;3.63;;;2.53;;
30593;SDS011;33199;47.590;8.300;2023-03-08T10:36:21;2.63;;;2.40;;
30593;SDS011;33199;47.590;8.300;2023-03-08T10:38:32;2.72;;;2.35;;
30593;SDS011;33199;47.590;8.300;2023-03-08T10:43:53;2.50;;;2.30;;
30593;SDS011;33199;47.590;8.300;2023-03-08T10:46:21;2.50;;;2.33;;
30593;SDS011;33199;47.590;8.300;2023-03-08T10:48:48;3.20;;;2.58;;
30593;SDS011;33199;47.590;8.300;2023-03-08T10:51:19;4.50;;;2.65;;
30593;SDS011;33199;47.590;8.300;2023-03-08T10:53:58;2.72;;;2.30;;
30593;SDS011;33199;47.590;8.300;2023-03-08T10:59:45;2.30;;;2.10;;
30593;SDS011;33199;47.590;8.300;2023-03-08T11:02:02;2.45;;;2.25;;
30593;SDS011;33199;47.590;8.300;2023-03-08T11:04:49;2.53;;;2.38;;
30593;SDS011;33199;47.590;8.300;2023-03-08T11:07:28;2.60;;;2.40;;
30593;SDS011;33199;47.590;8.300;2023-03-08T11:10:05;2.80;;;2.60;;
30593;SDS011;33199;47.590;8.300;2023-03-08T11:12:42;2.65;;;2.28;;
30593;SDS011;33199;47.590;8.300;2023-03-08T11:15:12;2.60;;;2.33;;
30593;SDS011;33199;47.590;8.300;2023-03-08T11:17:38;2.17;;;2.05;;
30593;SDS011;33199;47.590;8.300;2023-03-08T11:20:37;2.83;;;2.40;;
30593;SDS011;33199;47.590;8.300;2023-03-08T11:23:49;2.33;;;2.13;;
30593;SDS011;33199;47.590;8.300;2023-03-08T11:26:22;2.38;;;2.03;;
30593;SDS011;33199;47.590;8.300;2023-03-08T11:39:40;2.58;;;2.33;;
30593;SDS011;33199;47.590;8.300;2023-03-08T11:42:19;3.50;;;1.98;;
30593;SDS011;33199;47.590;8.300;2023-03-08T11:47:52;3.03;;;2.30;;
30593;SDS011;33199;47.590;8.300;2023-03-08T11:50:42;2.08;;;1.88;;
30593;SDS011;33199;47.590;8.300;2023-03-08T11:53:27;1.92;;;1.83;;
30593;SDS011;33199;47.590;8.300;2023-03-08T11:59:03;2.30;;;2.10;;
30593;SDS011;33199;47.590;8.300;2023-03-08T12:01:46;2.30;;;1.80;;
30593;SDS011;33199;47.590;8.300;2023-03-08T12:04:20;1.92;;;1.83;;
30593;SDS011;33199;47.590;8.300;2023-03-08T12:06:57;1.90;;;1.80;;
30593;SDS011;33199;47.590;8.300;2023-03-08T12:09:30;2.47;;;2.30;;
30593;SDS011;33199;47.590;8.300;2023-03-08T12:14:55;1.92;;;1.67;;
30593;SDS011;33199;47.590;8.300;2023-03-08T12:17:41;2.17;;;2.05;;
30593;SDS011;33199;47.590;8.300;2023-03-08T12:20:13;2.08;;;1.98;;
30593;SDS011;33199;47.590;8.300;2023-03-08T12:33:08;1.88;;;1.77;;
30593;SDS011;33199;47.590;8.300;2023-03-08T12:35:48;1.95;;;1.85;;
30593;SDS011;33199;47.590;8.300;2023-03-08T12:40:51;1.95;;;1.63;;
30593;SDS011;33199;47.590;8.300;2023-03-08T12:45:44;1.70;;;1.60;;
30593;SDS011;33199;47.590;8.300;2023-03-08T12:53:37;1.65;;;1.55;;
30593;SDS011;33199;47.590;8.300;2023-03-08T13:01:32;1.80;;;1.70;;
30593;SDS011;33199;47.590;8.300;2023-03-08T13:03:59;1.60;;;1.50;;
30593;SDS011;33199;47.590;8.300;2023-03-08T13:09:05;1.77;;;1.67;;
30593;SDS011;33199;47.590;8.300;2023-03-08T13:11:44;1.73;;;1.63;;
30593;SDS011;33199;47.590;8.300;2023-03-08T13:14:21;1.55;;;1.45;;
30593;SDS011;33199;47.590;8.300;2023-03-08T13:16:50;1.67;;;1.58;;
30593;SDS011;33199;47.590;8.300;2023-03-08T13:19:17;1.70;;;1.58;;
30593;SDS011;33199;47.590;8.300;2023-03-08T13:21:56;1.60;;;1.50;;
30593;SDS011;33199;47.590;8.300;2023-03-08T13:27:54;1.50;;;1.40;;
30593;SDS011;33199;47.590;8.300;2023-03-08T13:30:35;1.60;;;1.50;;
30593;SDS011;33199;47.590;8.300;2023-03-08T13:33:13;1.63;;;1.52;;
30593;SDS011;33199;47.590;8.300;2023-03-08T13:35:41;1.77;;;1.67;;
30593;SDS011;33199;47.590;8.300;2023-03-08T13:38:15;1.38;;;1.38;;
30593;SDS011;33199;47.590;8.300;2023-03-08T13:40:50;2.55;;;1.58;;
30593;SDS011;33199;47.590;8.300;2023-03-08T13:43:19;1.88;;;1.65;;
30593;SDS011;33199;47.590;8.300;2023-03-08T13:45:47;1.42;;;1.33;;
30593;SDS011;33199;47.590;8.300;2023-03-08T13:48:14;1.90;;;1.53;;
30593;SDS011;33199;47.590;8.300;2023-03-08T13:50:50;1.60;;;1.50;;
30593;SDS011;33199;47.590;8.300;2023-03-08T13:53:23;1.20;;;1.20;;
30593;SDS011;33199;47.590;8.300;2023-03-08T13:55:53;2.30;;;1.50;;
30593;SDS011;33199;47.590;8.300;2023-03-08T14:00:58;1.30;;;1.17;;
30593;SDS011;33199;47.590;8.300;2023-03-08T14:03:47;1.55;;;1.45;;
30593;SDS011;33199;47.590;8.300;2023-03-08T14:06:22;1.17;;;1.17;;
30593;SDS011;33199;47.590;8.300;2023-03-08T14:08:48;1.50;;;1.40;;
30593;SDS011;33199;47.590;8.300;2023-03-08T14:11:16;1.48;;;1.38;;
30593;SDS011;33199;47.590;8.300;2023-03-08T14:13:51;1.27;;;1.20;;
30593;SDS011;33199;47.590;8.300;2023-03-08T14:16:35;1.30;;;1.20;;
30593;SDS011;33199;47.590;8.300;2023-03-08T14:19:17;1.58;;;1.48;;
30593;SDS011;33199;47.590;8.300;2023-03-08T14:21:49;1.55;;;1.45;;
30593;SDS011;33199;47.590;8.300;2023-03-08T14:24:29;1.60;;;1.50;;
30593;SDS011;33199;47.590;8.300;2023-03-08T14:27:04;1.50;;;1.40;;
30593;SDS011;33199;47.590;8.300;2023-03-08T14:29:30;1.40;;;1.30;;
30593;SDS011;33199;47.590;8.300;2023-03-08T14:34:36;1.15;;;1.15;;
30593;SDS011;33199;47.590;8.300;2023-03-08T14:39:41;1.50;;;1.40;;
30593;SDS011;33199;47.590;8.300;2023-03-08T14:44:52;1.38;;;1.27;;
30593;SDS011;33199;47.590;8.300;2023-03-08T14:47:29;1.15;;;1.15;;
30593;SDS011;33199;47.590;8.300;2023-03-08T14:49:59;1.33;;;1.20;;
30593;SDS011;33199;47.590;8.300;2023-03-08T14:52:27;1.10;;;1.10;;
30593;SDS011;33199;47.590;8.300;2023-03-08T14:54:54;1.40;;;1.30;;
30593;SDS011;33199;47.590;8.300;2023-03-08T14:57:21;1.15;;;1.15;;
30593;SDS011;33199;47.590;8.300;2023-03-08T15:02:15;3.28;;;1.38;;
30593;SDS011;33199;47.590;8.300;2023-03-08T15:04:42;1.33;;;1.23;;
30593;SDS011;33199;47.590;8.300;2023-03-08T15:07:19;1.25;;;1.08;;
30593;SDS011;33199;47.590;8.300;2023-03-08T15:09:47;0.80;;;0.80;;
30593;SDS011;33199;47.590;8.300;2023-03-08T15:12:14;0.70;;;0.70;;
30593;SDS011;33199;47.590;8.300;2023-03-08T15:14:39;2.30;;;1.40;;
30593;SDS011;33199;47.590;8.300;2023-03-08T15:17:05;1.58;;;1.48;;
30593;SDS011;33199;47.590;8.300;2023-03-08T15:19:30;1.30;;;1.20;;
30593;SDS011;33199;47.590;8.300;2023-03-08T15:21:56;2.15;;;1.40;;
30593;SDS011;33199;47.590;8.300;2023-03-08T15:24:25;1.15;;;1.15;;
30593;SDS011;33199;47.590;8.300;2023-03-08T15:26:51;0.98;;;0.98;;
30593;SDS011;33199;47.590;8.300;2023-03-08T15:31:53;1.30;;;1.20;;
30593;SDS011;33199;47.590;8.300;2023-03-08T15:34:19;0.85;;;0.85;;
30593;SDS011;33199;47.590;8.300;2023-03-08T15:36:46;1.20;;;1.08;;
30593;SDS011;33199;47.590;8.300;2023-03-08T15:39:12;1.30;;;1.15;;
30593;SDS011;33199;47.590;8.300;2023-03-08T15:41:38;1.25;;;1.10;;
30593;SDS011;33199;47.590;8.300;2023-03-08T15:44:04;0.80;;;0.80;;
30593;SDS011;33199;47.590;8.300;2023-03-08T15:46:30;1.08;;;1.00;;
30593;SDS011;33199;47.590;8.300;2023-03-08T15:48:55;1.10;;;1.10;;
30593;SDS011;33199;47.590;8.300;2023-03-08T15:51:21;1.10;;;1.10;;
30593;SDS011;33199;47.590;8.300;2023-03-08T15:53:52;1.10;;;1.10;;
30593;SDS011;33199;47.590;8.300;2023-03-08T15:56:17;1.20;;;1.10;;
30593;SDS011;33199;47.590;8.300;2023-03-08T15:58:43;1.20;;;1.10;;
30593;SDS011;33199;47.590;8.300;2023-03-08T16:01:08;1.17;;;1.15;;
30593;SDS011;33199;47.590;8.300;2023-03-08T16:03:35;1.00;;;0.90;;
30593;SDS011;33199;47.590;8.300;2023-03-08T16:06:02;0.93;;;0.93;;
30593;SDS011;33199;47.590;8.300;2023-03-08T16:08:33;1.10;;;1.00;;
30593;SDS011;33199;47.590;8.300;2023-03-08T16:10:59;4.05;;;1.00;;
30593;SDS011;33199;47.590;8.300;2023-03-08T16:13:28;0.98;;;0.98;;
30593;SDS011;33199;47.590;8.300;2023-03-08T16:15:56;0.77;;;0.77;;
30593;SDS011;33199;47.590;8.300;2023-03-08T16:18:23;0.80;;;0.80;;
30593;SDS011;33199;47.590;8.300;2023-03-08T16:20:49;1.70;;;0.90;;
30593;SDS011;33199;47.590;8.300;2023-03-08T16:23:14;1.13;;;1.10;;
30593;SDS011;33199;47.590;8.300;2023-03-08T16:25:40;1.20;;;1.20;;
30593;SDS011;33199;47.590;8.300;2023-03-08T16:28:07;0.93;;;0.93;;